Louise S — WDE9035 — position and weather

sailwx.info

Track history (hours):
 
Tides and Currents Weather Stations Pressure Air Temp Water Temp Dewpoint Dewpoint Depression Visibility Wind Speed Wind Dir Waves Ship Positions

Louise S

Owner: CAMPBELL TRANSPORTATION COMPANY, CHARLEROI, PA. More information available from US FCC via Universal Licensing System and Coast Guard Vessel Documentation Center.

Last reported at 2015-Oct-03 23:33 UTC. Time now 2016-Dec-09 09:44 UTC.
Position N 39°08' W 084°46'.
Warning: this ship's position is years out of date!

Date/timePositionNaut miles runAvg speedWind from/ knotsBaromVisibWave heightAir tempDewpointWater temp
2015-Oct-03 23:33N 39°08' W 084°46'4 4.0
2015-Oct-03 22:33N 39°06' W 084°41'0 0.0
2015-Oct-03 21:32N 39°06' W 084°41'0 0.0
2015-Oct-03 20:31N 39°06' W 084°41'0 0.0
2015-Oct-03 19:29N 39°06' W 084°41'0 0.0
2015-Oct-03 18:33N 39°06' W 084°41'4 3.8
2015-Oct-03 17:33N 39°04' W 084°37'4 3.8
2015-Oct-03 16:33N 39°06' W 084°33'0 0.0
2015-Oct-03 15:32N 39°06' W 084°33'0 0.1
2015-Oct-03 14:33N 39°06' W 084°33'5 4.7
2015-Oct-03 13:33N 39°07' W 084°27'5 4.4
2015-Oct-03 12:32N 39°03' W 084°24'0 0.1
2015-Oct-03 11:32N 39°03' W 084°24'0 0.0
2015-Oct-03 10:33N 39°03' W 084°24'0 0.0
2015-Oct-03 09:32N 39°03' W 084°24'2 1.7
2015-Oct-03 08:33N 39°02' W 084°22'6 5.6
2015-Oct-03 07:33N 38°58' W 084°18'6 5.8
2015-Oct-03 06:33N 38°53' W 084°14'5 5.0
2015-Oct-03 05:32N 38°48' W 084°12'0 0.0
2015-Oct-02 20:16N 38°48' W 084°12'4 5.0
2015-Oct-02 19:29N 38°52' W 084°14'5 5.2
2015-Oct-02 18:32N 38°56' W 084°17'5 5.3
2015-Oct-02 17:33N 39°01' W 084°19'5 5.3
2015-Oct-02 16:32N 39°03' W 084°25'5 4.8
2015-Oct-02 15:33N 39°07' W 084°29'4 4.5
2015-Oct-02 14:33N 39°05' W 084°34'1 1.1
2015-Oct-02 13:32N 39°05' W 084°35'0 0.0
2015-Oct-02 12:32N 39°05' W 084°35'0 0.0
2015-Oct-02 11:32N 39°05' W 084°35'0 0.0
2015-Oct-02 10:32N 39°05' W 084°35'3 3.0
2015-Oct-02 09:33N 39°05' W 084°39'5 5.0
2015-Oct-02 08:33N 39°08' W 084°44'  
Track history (hours):
 
Tides and Currents Weather Stations Pressure Air Temp Water Temp Dewpoint Dewpoint Depression Visibility Wind Speed Wind Dir Waves Ship Positions

Louise S

Owner: CAMPBELL TRANSPORTATION COMPANY, CHARLEROI, PA. More information available from US FCC via Universal Licensing System and Coast Guard Vessel Documentation Center.

Last reported at 2015-Oct-03 23:33 UTC. Time now 2016-Dec-09 09:44 UTC.
Position N 39°08' W 084°46'.
Warning: this ship's position is years out of date!

Date/timePositionNaut miles runAvg speedWind from/ knotsBaromVisibWave heightAir tempDewpointWater temp
2015-Oct-03 23:33N 39°08' W 084°46'4 4.0
2015-Oct-03 22:33N 39°06' W 084°41'0 0.0
2015-Oct-03 21:32N 39°06' W 084°41'0 0.0
2015-Oct-03 20:31N 39°06' W 084°41'0 0.0
2015-Oct-03 19:29N 39°06' W 084°41'0 0.0
2015-Oct-03 18:33N 39°06' W 084°41'4 3.8
2015-Oct-03 17:33N 39°04' W 084°37'4 3.8
2015-Oct-03 16:33N 39°06' W 084°33'0 0.0
2015-Oct-03 15:32N 39°06' W 084°33'0 0.1
2015-Oct-03 14:33N 39°06' W 084°33'5 4.7
2015-Oct-03 13:33N 39°07' W 084°27'5 4.4
2015-Oct-03 12:32N 39°03' W 084°24'0 0.1
2015-Oct-03 11:32N 39°03' W 084°24'0 0.0
2015-Oct-03 10:33N 39°03' W 084°24'0 0.0
2015-Oct-03 09:32N 39°03' W 084°24'2 1.7
2015-Oct-03 08:33N 39°02' W 084°22'6 5.6
2015-Oct-03 07:33N 38°58' W 084°18'6 5.8
2015-Oct-03 06:33N 38°53' W 084°14'5 5.0
2015-Oct-03 05:32N 38°48' W 084°12'0 0.0
2015-Oct-02 20:16N 38°48' W 084°12'4 5.0
2015-Oct-02 19:29N 38°52' W 084°14'5 5.2
2015-Oct-02 18:32N 38°56' W 084°17'5 5.3
2015-Oct-02 17:33N 39°01' W 084°19'5 5.3
2015-Oct-02 16:32N 39°03' W 084°25'5 4.8
2015-Oct-02 15:33N 39°07' W 084°29'4 4.5
2015-Oct-02 14:33N 39°05' W 084°34'1 1.1
2015-Oct-02 13:32N 39°05' W 084°35'0 0.0
2015-Oct-02 12:32N 39°05' W 084°35'0 0.0
2015-Oct-02 11:32N 39°05' W 084°35'0 0.0
2015-Oct-02 10:32N 39°05' W 084°35'3 3.0
2015-Oct-02 09:33N 39°05' W 084°39'5 5.0
2015-Oct-02 08:33N 39°08' W 084°44'  

Dump ship's entire track history